Time;durP1;ratioP1;P1;durP2;ratioP2;P2;SDS_P1;SDS_P2;PMS_P1;PMS_P2;Temp;Humidity;BMP_temperature;BMP_pressure;BME280_temperature;BME280_humidity;BME280_pressure;Samples;Min_cycle;Max_cycle;Signal;HPM_P1;HPM_P2
2022/10/21 00:01:30;;;;;;;26.75;15.55;;;11.60;99.90;;;;;;4880039;29;20406;-72
2022/10/21 00:03:56;;;;;;;22.42;14.85;;;11.60;99.90;;;;;;4880517;29;20045;-71
2022/10/21 00:06:21;;;;;;;24.27;15.25;;;11.60;99.90;;;;;;4880735;29;20153;-71
2022/10/21 00:08:47;;;;;;;24.83;15.77;;;11.60;99.90;;;;;;4879950;29;20575;-72
2022/10/21 00:11:13;;;;;;;24.80;14.18;;;11.80;99.90;;;;;;4879675;29;20565;-71
2022/10/21 00:13:39;;;;;;;25.92;14.98;;;11.50;99.90;;;;;;4864298;29;20057;-72
2022/10/21 00:16:07;;;;;;;23.77;15.23;;;11.60;99.90;;;;;;4880894;29;20140;-72
2022/10/21 00:18:35;;;;;;;21.50;14.57;;;11.60;99.90;;;;;;4879932;29;20429;-71
2022/10/21 00:21:05;;;;;;;24.45;15.18;;;11.60;99.90;;;;;;4880990;29;20089;-71
2022/10/21 00:23:30;;;;;;;24.58;15.35;;;11.60;99.90;;;;;;4880650;29;20060;-71
2022/10/21 00:25:57;;;;;;;21.30;14.45;;;11.60;99.90;;;;;;4879355;29;20045;-72
2022/10/21 00:28:23;;;;;;;23.55;14.68;;;11.80;99.90;;;;;;4879407;29;20096;-72
2022/10/21 00:30:49;;;;;;;24.15;15.40;;;11.60;99.90;;;;;;4880719;29;20049;-72
2022/10/21 00:33:15;;;;;;;25.42;16.08;;;11.80;99.90;;;;;;4863448;29;20076;-71
2022/10/21 00:35:40;;;;;;;24.63;15.13;;;11.80;99.90;;;;;;4880486;29;20056;-72
2022/10/21 00:38:07;;;;;;;22.73;14.55;;;11.60;99.90;;;;;;4879474;29;20094;-71
2022/10/21 00:40:33;;;;;;;23.35;14.38;;;11.60;99.90;;;;;;4863697;29;20490;-71
2022/10/21 00:42:59;;;;;;;24.77;14.93;;;11.60;99.90;;;;;;4880141;29;20052;-72
2022/10/21 00:45:28;;;;;;;21.55;14.43;;;11.50;99.90;;;;;;4879767;29;20451;-71
2022/10/21 00:48:34;;;;;;;23.67;14.65;;;11.50;99.90;;;;;;4880330;29;20044;-71
2022/10/21 00:51:02;;;;;;;27.23;15.15;;;11.90;99.90;;;;;;4878745;29;20057;-71
2022/10/21 00:53:29;;;;;;;24.77;15.60;;;11.60;99.90;;;;;;4880044;29;20049;-71
2022/10/21 00:56:00;;;;;;;24.45;14.32;;;11.50;99.90;;;;;;4879310;29;20073;-72
2022/10/21 00:58:28;;;;;;;25.23;14.95;;;11.50;99.90;;;;;;4879231;29;20085;-71
2022/10/21 01:00:56;;;;;;;22.85;15.05;;;11.50;99.90;;;;;;4880162;29;20127;-71
2022/10/21 01:03:27;;;;;;;22.60;14.68;;;11.50;99.90;;;;;;4878367;29;20060;-71
2022/10/21 01:05:55;;;;;;;22.73;14.45;;;11.70;99.90;;;;;;4878455;29;20068;-72
2022/10/21 01:08:22;;;;;;;21.52;14.55;;;11.60;99.90;;;;;;4879775;29;20573;-72
2022/10/21 01:10:48;;;;;;;28.77;15.05;;;11.50;99.90;;;;;;4879974;29;20049;-71
2022/10/21 01:13:46;;;;;;;23.90;14.32;;;11.50;99.90;;;;;;4878898;29;20379;-71
2022/10/21 01:16:41;;;;;;;25.05;14.93;;;12.30;99.90;;;;;;4878492;29;20053;-74
2022/10/21 01:19:21;;;;;;;25.77;14.65;;;11.50;99.90;;;;;;4880334;29;20417;-71
2022/10/21 01:21:56;;;;;;;24.73;13.73;;;11.60;99.90;;;;;;4863676;29;20049;-72
2022/10/21 01:24:45;;;;;;;23.77;15.55;;;11.50;99.90;;;;;;4880038;29;20397;-71
2022/10/21 01:27:39;;;;;;;25.52;14.82;;;11.50;99.90;;;;;;4863454;29;20084;-71
2022/10/21 01:30:13;;;;;;;23.73;13.98;;;11.60;99.90;;;;;;4878944;29;20052;-71
2022/10/21 01:33:19;;;;;;;21.40;13.98;;;11.50;99.90;;;;;;4862441;29;20060;-72
2022/10/21 01:35:52;;;;;;;19.90;13.68;;;11.50;99.90;;;;;;4878928;29;20069;-72
2022/10/21 01:38:53;;;;;;;22.90;13.68;;;11.60;99.90;;;;;;4879528;29;20410;-72
2022/10/21 01:41:37;;;;;;;19.75;14.27;;;11.50;99.90;;;;;;4879338;29;20363;-72
2022/10/21 01:44:20;;;;;;;23.00;13.95;;;11.50;99.90;;;;;;4879650;29;20098;-72
2022/10/21 01:47:16;;;;;;;21.02;13.75;;;11.60;99.90;;;;;;4878722;29;20060;-71
2022/10/21 01:50:09;;;;;;;25.42;13.50;;;11.50;99.90;;;;;;4878352;29;20462;-72
2022/10/21 01:52:36;;;;;;;20.67;13.85;;;11.50;99.90;;;;;;4882249;29;20056;-72
2022/10/21 01:55:07;;;;;;;22.65;13.65;;;11.40;99.90;;;;;;4851911;29;20056;-72
2022/10/21 01:57:39;;;;;;;19.10;13.55;;;11.60;99.90;;;;;;4883473;29;20056;-71
2022/10/21 02:00:06;;;;;;;25.50;13.98;;;11.60;99.90;;;;;;4883020;29;20484;-72
2022/10/21 02:02:36;;;;;;;25.08;13.98;;;11.50;99.90;;;;;;4883679;29;20522;-72
2022/10/21 02:05:08;;;;;;;22.35;13.90;;;11.50;99.90;;;;;;4882537;29;20061;-71
2022/10/21 02:07:34;;;;;;;24.13;14.70;;;11.50;99.90;;;;;;4883252;29;20045;-71
2022/10/21 02:10:00;;;;;;;21.75;14.15;;;11.70;99.90;;;;;;4881986;29;20072;-71
2022/10/21 02:12:28;;;;;;;21.52;13.70;;;11.80;99.90;;;;;;4882899;29;20081;-72
2022/10/21 02:14:54;;;;;;;21.85;13.40;;;11.50;99.90;;;;;;4881554;29;20132;-72
2022/10/21 02:17:21;;;;;;;20.40;12.65;;;11.60;99.90;;;;;;4883290;29;20088;-72
2022/10/21 02:19:47;;;;;;;22.13;13.73;;;11.60;99.90;;;;;;4882957;29;20045;-71
2022/10/21 02:22:18;;;;;;;21.10;13.02;;;11.60;99.90;;;;;;4881718;29;20044;-71
2022/10/21 02:24:51;;;;;;;20.98;13.45;;;11.70;99.90;;;;;;4881664;29;20049;-72
2022/10/21 02:27:19;;;;;;;20.08;13.52;;;11.70;99.90;;;;;;4882598;29;20144;-72
2022/10/21 02:29:47;;;;;;;20.05;12.80;;;11.70;99.90;;;;;;4881940;29;20379;-72
2022/10/21 02:32:19;;;;;;;21.20;13.07;;;11.70;99.90;;;;;;4882698;29;20044;-72
2022/10/21 02:35:10;;;;;;;21.23;13.60;;;11.70;99.90;;;;;;4881170;29;20482;-72
2022/10/21 02:37:42;;;;;;;20.23;12.95;;;11.90;99.90;;;;;;4866033;29;20057;-72
2022/10/21 02:40:23;;;;;;;20.67;13.73;;;11.90;99.90;;;;;;4882615;29;20085;-72
2022/10/21 02:42:55;;;;;;;21.38;13.75;;;11.80;99.90;;;;;;4882706;29;20059;-72
2022/10/21 02:45:22;;;;;;;22.58;13.55;;;11.80;99.90;;;;;;4882535;29;20049;-72
2022/10/21 02:47:49;;;;;;;20.45;12.77;;;11.80;99.90;;;;;;4865916;29;20557;-72
2022/10/21 02:50:15;;;;;;;18.92;12.45;;;12.10;99.90;;;;;;4881190;29;20061;-72
2022/10/21 02:52:41;;;;;;;19.17;12.77;;;11.80;99.90;;;;;;4881807;29;20395;-72
2022/10/21 02:55:07;;;;;;;26.40;13.57;;;12.00;99.90;;;;;;4882272;29;20049;-72
2022/10/21 02:57:32;;;;;;;22.55;14.18;;;11.80;99.90;;;;;;4850780;29;20052;-72
2022/10/21 02:59:58;;;;;;;22.67;13.25;;;11.90;99.90;;;;;;4880973;29;20061;-72
2022/10/21 03:02:24;;;;;;;20.02;12.48;;;12.10;99.90;;;;;;4881980;29;20491;-72
2022/10/21 03:04:50;;;;;;;20.17;12.77;;;11.80;99.90;;;;;;4879919;29;20096;-72
2022/10/21 03:07:15;;;;;;;19.02;13.18;;;11.90;99.90;;;;;;4880651;29;20148;-72
2022/10/21 03:09:41;;;;;;;25.48;14.30;;;11.80;99.90;;;;;;4881059;29;20044;-72
2022/10/21 03:12:07;;;;;;;24.27;13.75;;;12.10;99.90;;;;;;4881838;29;20080;-72
2022/10/21 03:14:32;;;;;;;24.75;14.40;;;11.90;99.90;;;;;;4880662;29;20390;-72
2022/10/21 03:16:58;;;;;;;25.77;15.60;;;11.90;99.90;;;;;;4880544;29;20498;-73
2022/10/21 03:19:24;;;;;;;30.95;16.05;;;11.90;99.90;;;;;;4864767;29;20045;-73
2022/10/21 03:21:49;;;;;;;34.85;17.42;;;11.90;99.90;;;;;;4850041;29;20063;-73
2022/10/21 03:24:15;;;;;;;32.80;16.42;;;11.90;99.90;;;;;;4881752;29;20057;-73
2022/10/21 03:26:41;;;;;;;39.33;17.95;;;11.90;99.90;;;;;;4881639;29;20049;-73
2022/10/21 03:29:06;;;;;;;34.15;17.27;;;11.90;99.90;;;;;;4865201;29;20056;-73
2022/10/21 03:31:32;;;;;;;45.63;19.15;;;12.00;99.90;;;;;;4865265;29;20045;-74
2022/10/21 03:33:58;;;;;;;31.88;16.83;;;12.00;99.90;;;;;;4864309;29;20081;-73
2022/10/21 03:36:23;;;;;;;38.72;17.58;;;11.90;99.90;;;;;;4880756;29;20057;-74
2022/10/21 03:38:49;;;;;;;28.88;15.80;;;12.10;99.90;;;;;;4880421;29;20048;-73
2022/10/21 03:41:15;;;;;;;53.78;19.30;;;12.00;99.90;;;;;;4880295;29;20056;-73
2022/10/21 03:43:40;;;;;;;34.70;17.23;;;12.00;99.90;;;;;;4864950;29;20045;-73
2022/10/21 03:46:06;;;;;;;36.88;17.15;;;12.10;99.90;;;;;;4880086;29;20129;-73
2022/10/21 03:48:32;;;;;;;37.95;17.13;;;12.20;99.90;;;;;;4864685;29;20085;-73
2022/10/21 03:50:57;;;;;;;40.80;18.90;;;12.10;99.90;;;;;;4864941;29;20095;-73
2022/10/21 03:53:23;;;;;;;43.38;19.10;;;12.00;99.90;;;;;;4880356;29;20162;-72
2022/10/21 03:55:50;;;;;;;32.30;17.15;;;12.10;99.90;;;;;;4864723;29;20105;-72
2022/10/21 03:58:16;;;;;;;42.00;18.30;;;12.20;99.90;;;;;;4864796;29;20051;-72
2022/10/21 04:00:42;;;;;;;51.70;21.00;;;12.20;99.90;;;;;;4879833;29;20127;-73
2022/10/21 04:03:07;;;;;;;42.78;20.08;;;12.30;99.90;;;;;;4864031;29;20120;-72
2022/10/21 04:05:33;;;;;;;37.25;18.98;;;12.10;99.90;;;;;;4879798;29;20157;-72
2022/10/21 04:07:59;;;;;;;36.47;18.95;;;12.20;99.90;;;;;;4880271;29;20509;-72
2022/10/21 04:10:25;;;;;;;39.33;18.23;;;12.20;99.90;;;;;;4864666;29;20053;-72
2022/10/21 04:12:51;;;;;;;38.05;18.92;;;12.20;99.90;;;;;;4879945;29;20060;-72
2022/10/21 04:15:17;;;;;;;37.83;17.90;;;12.20;99.90;;;;;;4879542;29;20056;-71
2022/10/21 04:17:45;;;;;;;36.00;17.50;;;12.20;99.90;;;;;;4879519;29;20071;-72
2022/10/21 04:20:11;;;;;;;39.42;17.70;;;12.20;99.90;;;;;;4880944;29;20091;-72
2022/10/21 04:22:36;;;;;;;37.97;19.33;;;12.30;99.90;;;;;;4879623;29;20049;-72
2022/10/21 04:25:02;;;;;;;37.85;18.50;;;12.10;99.90;;;;;;4879618;29;20196;-72
2022/10/21 04:27:28;;;;;;;40.63;19.45;;;12.30;99.90;;;;;;4879595;29;20056;-72
2022/10/21 04:29:54;;;;;;;35.70;17.67;;;12.40;99.90;;;;;;4879773;29;20501;-72
2022/10/21 04:32:19;;;;;;;39.00;18.50;;;12.30;99.90;;;;;;4863816;29;20051;-72
2022/10/21 04:34:45;;;;;;;37.90;18.70;;;12.30;99.90;;;;;;4863491;29;20180;-72
2022/10/21 04:37:11;;;;;;;43.75;19.58;;;12.40;99.90;;;;;;4864077;29;20112;-72
2022/10/21 04:39:37;;;;;;;35.95;17.20;;;12.20;99.90;;;;;;4863733;29;20049;-71
2022/10/21 04:42:03;;;;;;;36.90;18.08;;;12.20;99.90;;;;;;4880553;29;20387;-71
2022/10/21 04:44:28;;;;;;;38.08;17.77;;;12.10;99.90;;;;;;4879291;29;20052;-71
2022/10/21 04:46:54;;;;;;;51.33;21.23;;;12.30;99.90;;;;;;4880141;29;20127;-72
2022/10/21 04:49:20;;;;;;;39.25;18.80;;;12.30;99.90;;;;;;4880378;29;20048;-72
2022/10/21 04:51:46;;;;;;;38.25;18.23;;;12.40;99.90;;;;;;4879084;29;20065;-71
2022/10/21 04:54:12;;;;;;;33.65;17.27;;;12.20;99.90;;;;;;4879077;29;20553;-71
2022/10/21 04:56:39;;;;;;;62.58;22.20;;;12.00;99.90;;;;;;4880181;29;20056;-71
2022/10/21 04:59:06;;;;;;;44.38;19.38;;;12.20;99.90;;;;;;4878854;29;20040;-71
2022/10/21 05:01:31;;;;;;;44.67;19.60;;;12.10;99.90;;;;;;4878935;29;20061;-72
2022/10/21 05:03:57;;;;;;;40.03;18.38;;;12.20;99.90;;;;;;4879394;29;20379;-71
2022/10/21 05:06:23;;;;;;;34.58;17.83;;;12.20;99.90;;;;;;4863149;29;20068;-71
2022/10/21 05:08:48;;;;;;;33.10;17.08;;;12.20;99.90;;;;;;4878770;29;20060;-71
2022/10/21 05:11:14;;;;;;;33.53;17.60;;;12.10;99.90;;;;;;4878761;29;20045;-71
2022/10/21 05:13:40;;;;;;;30.52;16.95;;;12.10;99.90;;;;;;4863555;29;20490;-71
2022/10/21 05:16:06;;;;;;;30.95;17.05;;;12.20;99.90;;;;;;4863242;29;20091;-71
2022/10/21 05:18:32;;;;;;;34.03;16.60;;;12.10;99.90;;;;;;4879551;29;20052;-71
2022/10/21 05:20:58;;;;;;;39.55;18.65;;;12.10;99.90;;;;;;4878588;29;20394;-71
2022/10/21 05:23:25;;;;;;;40.50;18.05;;;12.00;99.90;;;;;;4879701;29;20052;-72
2022/10/21 05:25:50;;;;;;;37.90;17.48;;;12.10;99.90;;;;;;4862460;29;20068;-72
2022/10/21 05:28:17;;;;;;;32.92;17.63;;;12.10;99.90;;;;;;4863135;29;20068;-72
2022/10/21 05:30:43;;;;;;;29.80;17.15;;;12.10;99.90;;;;;;4878314;29;20490;-71
2022/10/21 05:33:09;;;;;;;33.72;17.17;;;12.10;99.90;;;;;;4878244;29;20111;-72
2022/10/21 05:35:34;;;;;;;39.83;18.05;;;12.10;99.90;;;;;;4879415;29;20533;-72
2022/10/21 05:38:00;;;;;;;35.75;16.08;;;12.00;99.90;;;;;;4878441;29;20056;-72
2022/10/21 05:40:26;;;;;;;37.08;18.20;;;12.30;99.90;;;;;;4878233;29;20077;-71
2022/10/21 05:42:52;;;;;;;29.05;15.18;;;12.10;99.90;;;;;;4863280;29;20045;-71
2022/10/21 05:45:18;;;;;;;34.58;18.08;;;12.10;99.90;;;;;;4878019;29;20550;-72
2022/10/21 05:47:43;;;;;;;31.88;17.17;;;12.10;99.90;;;;;;4863221;29;20064;-72
2022/10/21 05:50:11;;;;;;;36.15;17.90;;;12.00;99.90;;;;;;4847839;29;20498;-71
2022/10/21 05:52:38;;;;;;;33.17;17.27;;;12.00;99.90;;;;;;4879436;29;20053;-71
2022/10/21 05:55:05;;;;;;;30.05;15.95;;;12.00;99.90;;;;;;4879398;29;20056;-71
2022/10/21 05:57:33;;;;;;;29.27;16.85;;;12.00;99.90;;;;;;4878108;29;20498;-71
2022/10/21 05:59:59;;;;;;;36.95;17.38;;;12.10;99.90;;;;;;4862614;29;20057;-72
2022/10/21 06:02:25;;;;;;;36.60;17.58;;;12.00;99.90;;;;;;4877903;29;20056;-71
2022/10/21 06:04:50;;;;;;;42.17;18.33;;;12.00;99.90;;;;;;4877630;29;20051;-71
2022/10/21 06:07:16;;;;;;;31.17;15.77;;;12.00;99.90;;;;;;4877835;29;20057;-71
2022/10/21 06:09:42;;;;;;;38.05;19.15;;;11.90;99.90;;;;;;4862436;29;20049;-71
2022/10/21 06:12:08;;;;;;;34.58;17.13;;;12.20;99.90;;;;;;4878131;29;20050;-71
2022/10/21 06:14:35;;;;;;;34.80;15.88;;;11.90;99.90;;;;;;4877787;29;20541;-71
2022/10/21 06:17:04;;;;;;;40.03;18.13;;;12.00;99.90;;;;;;4847292;29;20124;-71
2022/10/21 06:19:30;;;;;;;37.03;18.38;;;12.00;99.90;;;;;;4878868;29;20133;-72
2022/10/21 06:21:57;;;;;;;34.08;17.90;;;12.00;99.90;;;;;;4878350;29;20048;-71
2022/10/21 06:24:23;;;;;;;28.92;15.48;;;11.90;99.90;;;;;;4878143;29;20109;-72
2022/10/21 06:26:49;;;;;;;32.40;16.95;;;12.10;99.90;;;;;;4862666;29;20139;-71
2022/10/21 06:29:16;;;;;;;33.90;16.40;;;11.90;99.90;;;;;;4862509;29;20052;-72
2022/10/21 06:31:42;;;;;;;32.97;15.68;;;12.00;99.90;;;;;;4878472;29;20041;-71
2022/10/21 06:34:08;;;;;;;27.55;15.23;;;12.00;99.90;;;;;;4877693;29;20088;-71
2022/10/21 06:36:36;;;;;;;35.38;16.80;;;11.90;99.90;;;;;;4863132;29;20474;-71
2022/10/21 06:39:06;;;;;;;33.95;17.17;;;11.90;99.90;;;;;;4881468;29;20053;-71
2022/10/21 06:41:32;;;;;;;29.88;15.77;;;11.90;99.90;;;;;;4882434;29;20140;-71
2022/10/21 06:43:58;;;;;;;35.53;17.08;;;11.90;99.90;;;;;;4881410;29;20375;-71
2022/10/21 06:46:24;;;;;;;27.45;14.63;;;11.90;99.90;;;;;;4881443;29;20055;-71
2022/10/21 06:48:49;;;;;;;50.53;19.02;;;11.80;99.90;;;;;;4865955;29;20120;-71
2022/10/21 06:51:20;;;;;;;31.50;16.75;;;11.80;99.90;;;;;;4881194;29;20049;-71
2022/10/21 06:53:50;;;;;;;34.22;16.20;;;11.90;99.90;;;;;;4881386;29;20152;-71
2022/10/21 06:56:17;;;;;;;36.25;15.90;;;11.80;99.90;;;;;;4881125;29;20055;-71
2022/10/21 06:58:47;;;;;;;31.13;15.55;;;12.10;99.90;;;;;;4881313;29;20053;-71
2022/10/21 07:01:26;;;;;;;30.73;16.02;;;11.70;99.90;;;;;;4882465;29;20219;-71
2022/10/21 07:03:52;;;;;;;34.65;17.15;;;11.90;99.90;;;;;;4865258;29;20093;-71
2022/10/21 07:06:18;;;;;;;33.80;16.75;;;11.90;99.90;;;;;;4880867;29;20503;-71
2022/10/21 07:08:44;;;;;;;31.27;16.08;;;12.00;99.90;;;;;;4882049;29;20056;-71
2022/10/21 07:11:12;;;;;;;30.80;15.25;;;11.90;99.90;;;;;;4881140;29;20060;-71
2022/10/21 07:13:37;;;;;;;27.42;14.50;;;11.90;99.90;;;;;;4882006;29;20410;-71
2022/10/21 07:16:14;;;;;;;29.85;15.25;;;11.80;99.90;;;;;;4880735;29;20041;-71
2022/10/21 07:18:39;;;;;;;32.20;16.67;;;11.90;99.90;;;;;;4880805;29;20057;-71
2022/10/21 07:21:08;;;;;;;33.17;16.27;;;11.90;99.90;;;;;;4880440;29;20116;-72
2022/10/21 07:23:34;;;;;;;36.55;17.27;;;12.00;99.90;;;;;;4881807;29;20104;-71
2022/10/21 07:26:06;;;;;;;31.58;15.20;;;11.90;99.90;;;;;;4881869;29;20101;-71
2022/10/21 07:28:33;;;;;;;39.80;18.30;;;12.00;99.90;;;;;;4864976;29;20379;-71
2022/10/21 07:30:59;;;;;;;28.05;15.38;;;11.90;99.90;;;;;;4865456;29;20049;-71
2022/10/21 07:33:25;;;;;;;27.20;15.15;;;12.00;99.90;;;;;;4864303;29;20076;-71
2022/10/21 07:35:51;;;;;;;26.55;14.93;;;12.00;99.90;;;;;;4880154;29;20048;-71
2022/10/21 07:38:17;;;;;;;26.45;14.30;;;12.00;99.90;;;;;;4849856;29;20410;-71
2022/10/21 07:40:43;;;;;;;29.75;15.38;;;12.10;99.90;;;;;;4881787;29;20125;-71
2022/10/21 07:43:10;;;;;;;34.85;17.60;;;12.10;99.90;;;;;;4865230;29;20156;-71
2022/10/21 07:45:40;;;;;;;29.38;16.67;;;12.10;99.90;;;;;;4865068;29;20148;-71
2022/10/21 07:48:07;;;;;;;24.73;14.07;;;12.30;99.90;;;;;;4864270;29;20056;-71
2022/10/21 07:50:33;;;;;;;30.38;16.27;;;12.10;99.90;;;;;;4879620;29;20100;-71
2022/10/21 07:53:00;;;;;;;30.45;15.80;;;13.00;99.90;;;;;;4880071;29;20131;-70
2022/10/21 07:55:25;;;;;;;41.42;17.52;;;12.10;99.90;;;;;;4880724;29;20506;-71
2022/10/21 07:57:51;;;;;;;29.50;15.40;;;12.20;99.90;;;;;;4864920;29;20074;-70
2022/10/21 08:00:17;;;;;;;34.72;16.73;;;12.20;99.90;;;;;;4864335;29;20045;-71
2022/10/21 08:02:42;;;;;;;29.95;15.77;;;12.20;99.90;;;;;;4879928;29;20504;-72
2022/10/21 08:05:08;;;;;;;32.90;16.08;;;12.30;99.90;;;;;;4879683;29;20394;-71
2022/10/21 08:07:34;;;;;;;29.30;15.98;;;12.30;99.90;;;;;;4880082;29;20075;-71
2022/10/21 08:10:00;;;;;;;29.23;15.55;;;12.30;99.90;;;;;;4879635;29;20074;-70
2022/10/21 08:12:26;;;;;;;30.90;16.00;;;12.40;99.90;;;;;;4864689;29;20053;-72
2022/10/21 08:14:51;;;;;;;37.60;17.02;;;12.30;99.90;;;;;;4879068;29;20076;-71
2022/10/21 08:17:17;;;;;;;32.70;16.83;;;12.40;99.90;;;;;;4863943;29;20518;-71
2022/10/21 08:19:44;;;;;;;30.80;16.67;;;12.50;99.90;;;;;;4879235;29;20045;-70
2022/10/21 08:22:10;;;;;;;33.65;16.13;;;12.50;99.90;;;;;;4879708;29;20097;-73
2022/10/21 08:24:35;;;;;;;32.35;16.80;;;12.50;99.90;;;;;;4864402;29;20053;-73
2022/10/21 08:27:03;;;;;;;32.63;17.08;;;12.60;99.90;;;;;;4862965;29;20454;-73
2022/10/21 08:29:29;;;;;;;31.08;16.05;;;12.70;99.90;;;;;;4877702;29;20069;-74
2022/10/21 08:31:55;;;;;;;34.55;17.23;;;13.00;99.90;;;;;;4863833;29;20179;-74
2022/10/21 08:34:21;;;;;;;29.08;16.02;;;12.90;99.90;;;;;;4878219;29;20045;-74
2022/10/21 08:36:46;;;;;;;28.92;15.20;;;12.80;99.90;;;;;;4878949;29;20185;-73
2022/10/21 08:39:12;;;;;;;28.50;15.38;;;12.90;99.90;;;;;;4879532;29;20057;-74
2022/10/21 08:41:51;;;;;;;36.75;16.73;;;13.00;99.90;;;;;;4878793;29;20132;-74
2022/10/21 08:44:38;;;;;;;24.73;15.27;;;13.10;99.90;;;;;;4859478;29;20049;-73
2022/10/21 08:47:27;;;;;;;24.40;13.45;;;13.10;99.90;;;;;;4862080;29;20057;-72
2022/10/21 08:50:10;;;;;;;25.80;15.00;;;13.20;99.90;;;;;;4873727;29;20044;-71
2022/10/21 08:52:56;;;;;;;26.95;15.02;;;13.20;99.90;;;;;;4877148;29;20057;-72
2022/10/21 08:55:34;;;;;;;25.77;14.82;;;13.20;99.90;;;;;;4862213;29;20116;-72
2022/10/21 08:58:01;;;;;;;29.90;16.60;;;13.30;99.90;;;;;;4877178;29;20097;-72
2022/10/21 09:00:34;;;;;;;28.38;15.57;;;13.40;99.90;;;;;;4878927;29;20077;-72
2022/10/21 09:03:26;;;;;;;29.15;14.95;;;13.30;99.90;;;;;;4878923;29;20402;-72
2022/10/21 09:06:03;;;;;;;26.83;14.25;;;13.30;99.90;;;;;;4877014;29;20098;-72
2022/10/21 09:08:48;;;;;;;23.02;13.05;;;13.50;99.90;;;;;;4876675;29;20131;-73
2022/10/21 09:11:27;;;;;;;26.00;14.07;;;13.30;99.90;;;;;;4877163;29;20059;-72
2022/10/21 09:14:16;;;;;;;29.73;14.57;;;13.40;99.90;;;;;;4857668;29;20048;-73
2022/10/21 09:16:47;;;;;;;24.70;14.30;;;13.50;99.90;;;;;;4878424;29;20064;-73
2022/10/21 09:19:19;;;;;;;27.25;15.10;;;13.60;99.90;;;;;;4877003;29;20108;-73
2022/10/21 09:22:22;;;;;;;26.77;13.43;;;13.70;99.90;;;;;;4861969;29;20056;-72
2022/10/21 09:25:01;;;;;;;26.77;14.18;;;13.80;99.90;;;;;;4869670;29;20045;-73
2022/10/21 09:27:28;;;;;;;25.58;13.73;;;13.70;99.90;;;;;;4877968;29;20049;-73
2022/10/21 09:30:00;;;;;;;23.83;13.75;;;13.70;99.90;;;;;;4874874;29;20092;-73
2022/10/21 09:32:34;;;;;;;23.33;12.30;;;13.80;99.90;;;;;;4878979;29;20053;-73
2022/10/21 09:35:38;;;;;;;26.83;14.32;;;13.80;99.90;;;;;;4877259;29;20049;-72
2022/10/21 09:38:24;;;;;;;23.63;12.40;;;13.80;99.90;;;;;;4788001;29;20123;-73
2022/10/21 09:40:58;;;;;;;22.27;13.20;;;13.70;99.90;;;;;;4870686;29;20547;-73
2022/10/21 09:43:25;;;;;;;24.42;13.73;;;13.80;99.90;;;;;;4875060;29;20121;-74
2022/10/21 09:45:52;;;;;;;22.83;13.18;;;13.90;99.90;;;;;;4877628;29;20124;-73
2022/10/21 09:48:18;;;;;;;23.70;13.60;;;13.80;99.90;;;;;;4877874;29;20423;-74
2022/10/21 09:50:47;;;;;;;24.20;14.05;;;13.90;99.90;;;;;;4876022;29;20136;-73
2022/10/21 09:53:21;;;;;;;20.50;12.88;;;13.80;99.90;;;;;;4877269;29;20546;-72
2022/10/21 09:55:50;;;;;;;29.08;15.70;;;13.70;99.90;;;;;;4861893;29;20105;-73
2022/10/21 09:58:27;;;;;;;30.42;15.25;;;13.90;99.90;;;;;;4862406;29;20049;-72
2022/10/21 10:00:54;;;;;;;19.23;11.63;;;14.00;99.90;;;;;;4859999;29;20048;-72
2022/10/21 10:03:30;;;;;;;16.67;11.88;;;14.10;99.90;;;;;;4861485;29;20053;-72
2022/10/21 10:05:56;;;;;;;22.13;13.48;;;14.20;99.90;;;;;;4875173;29;20069;-73
2022/10/21 10:09:03;;;;;;;22.50;12.10;;;14.00;99.90;;;;;;4877106;29;20112;-72
2022/10/21 10:11:29;;;;;;;19.05;11.30;;;14.20;99.90;;;;;;4859149;29;20053;-73
2022/10/21 10:13:55;;;;;;;20.90;12.32;;;14.30;99.90;;;;;;4881389;29;20558;-72
2022/10/21 10:16:29;;;;;;;20.55;11.93;;;14.30;99.90;;;;;;4879563;29;20406;-74
2022/10/21 10:19:15;;;;;;;19.40;10.80;;;14.40;99.90;;;;;;4863647;29;20049;-72
2022/10/21 10:21:41;;;;;;;21.92;11.95;;;14.40;99.90;;;;;;4879640;29;20140;-73
2022/10/21 10:24:16;;;;;;;16.58;10.98;;;14.40;99.90;;;;;;4880634;29;20063;-73
2022/10/21 10:26:42;;;;;;;16.67;10.20;;;14.50;99.90;;;;;;4862937;29;20060;-71
2022/10/21 10:29:09;;;;;;;22.50;12.13;;;14.60;99.90;;;;;;4880748;29;20060;-72
2022/10/21 10:31:36;;;;;;;18.02;11.30;;;14.40;99.90;;;;;;4881678;29;20060;-72
2022/10/21 10:34:05;;;;;;;20.27;12.52;;;14.70;99.90;;;;;;4864905;29;20045;-71
2022/10/21 10:36:37;;;;;;;18.92;11.65;;;14.60;99.90;;;;;;4879434;29;20512;-72
2022/10/21 10:39:15;;;;;;;17.90;11.02;;;14.70;99.90;;;;;;4881756;29;20048;-71
2022/10/21 10:41:47;;;;;;;20.80;11.93;;;14.60;99.90;;;;;;4877013;29;20060;-71
2022/10/21 10:44:28;;;;;;;15.25;11.25;;;14.70;99.90;;;;;;4879426;29;20053;-71
2022/10/21 10:46:56;;;;;;;19.65;11.52;;;14.90;99.90;;;;;;4878312;29;20040;-71
2022/10/21 10:49:23;;;;;;;19.27;12.00;;;14.70;99.90;;;;;;4880126;29;20061;-71
2022/10/21 10:52:23;;;;;;;17.38;10.55;;;14.70;99.90;;;;;;4877366;29;20128;-72
2022/10/21 10:55:13;;;;;;;16.90;10.32;;;14.60;99.90;;;;;;4837951;29;20067;-72
2022/10/21 10:57:43;;;;;;;15.70;10.23;;;14.70;99.90;;;;;;4870692;29;20546;-71
2022/10/21 11:00:18;;;;;;;18.85;10.50;;;14.70;99.90;;;;;;4881076;29;20100;-72
2022/10/21 11:02:56;;;;;;;19.63;9.80;;;14.80;99.90;;;;;;4880685;29;20178;-72
2022/10/21 11:05:25;;;;;;;12.50;9.43;;;14.60;99.90;;;;;;4880387;29;20069;-72
2022/10/21 11:07:54;;;;;;;15.30;9.38;;;14.70;99.90;;;;;;4878410;29;20512;-72
2022/10/21 11:10:29;;;;;;;14.48;9.70;;;14.70;99.90;;;;;;4876327;29;20045;-71
2022/10/21 11:12:55;;;;;;;17.13;10.05;;;14.70;99.90;;;;;;4879180;29;20053;-71
2022/10/21 11:15:31;;;;;;;14.27;8.43;;;15.70;99.90;;;;;;4881237;29;20068;-72
2022/10/21 11:18:15;;;;;;;14.65;9.25;;;14.70;99.90;;;;;;4881326;29;20043;-71
2022/10/21 11:21:03;;;;;;;16.08;8.88;;;14.90;99.90;;;;;;4881158;29;20430;-71
2022/10/21 11:23:50;;;;;;;16.42;9.55;;;14.90;99.90;;;;;;4879965;29;20055;-71
2022/10/21 11:26:24;;;;;;;18.23;10.48;;;14.90;99.90;;;;;;4880350;29;20389;-72
2022/10/21 11:29:18;;;;;;;16.50;11.02;;;14.90;99.90;;;;;;4864420;29;20053;-72
2022/10/21 11:31:52;;;;;;;;;;;15.00;99.90;;;;;;4881256;29;20049;-72
2022/10/21 11:34:29;;;;;;;15.13;10.07;;;15.00;99.90;;;;;;4880809;29;19931;-72
2022/10/21 11:37:18;;;;;;;15.95;9.77;;;15.10;99.90;;;;;;4865227;29;20132;-71
2022/10/21 11:40:03;;;;;;;18.38;9.48;;;15.00;99.90;;;;;;4879843;29;20045;-71
2022/10/21 11:42:50;;;;;;;15.82;10.10;;;15.00;99.90;;;;;;4880984;29;20049;-71
2022/10/21 11:45:27;;;;;;;14.75;9.77;;;15.00;99.90;;;;;;4880176;29;20049;-72
2022/10/21 11:48:05;;;;;;;16.73;10.50;;;15.10;99.90;;;;;;4864292;29;20049;-71
2022/10/21 11:50:56;;;;;;;15.80;9.40;;;15.10;99.90;;;;;;4879748;29;20148;-71
2022/10/21 11:53:41;;;;;;;15.23;8.98;;;15.10;99.90;;;;;;4870200;29;20152;-71
2022/10/21 11:56:15;;;;;;;14.57;8.88;;;15.10;99.90;;;;;;4880055;29;20060;-71
2022/10/21 11:58:58;;;;;;;16.73;9.50;;;15.00;99.90;;;;;;4863868;29;20063;-72
2022/10/21 12:01:53;;;;;;;13.25;9.38;;;15.00;99.90;;;;;;4879731;29;20049;-71
2022/10/21 12:04:42;;;;;;;13.82;9.32;;;15.20;99.90;;;;;;4879413;29;20101;-71
2022/10/21 12:07:27;;;;;;;14.27;9.20;;;15.20;99.90;;;;;;4880312;29;20064;-71
2022/10/21 12:10:11;;;;;;;15.85;9.13;;;15.20;99.90;;;;;;4879572;29;20053;-71
2022/10/21 12:12:43;;;;;;;13.55;8.43;;;15.20;99.90;;;;;;4880693;29;20044;-70
2022/10/21 12:15:25;;;;;;;12.68;8.93;;;15.20;99.90;;;;;;4880835;29;20124;-71
2022/10/21 12:17:52;;;;;;;15.45;9.35;;;15.30;99.90;;;;;;4864021;29;20057;-71
2022/10/21 12:20:25;;;;;;;17.85;9.75;;;15.20;99.90;;;;;;4879923;29;20522;-70
2022/10/21 12:22:58;;;;;;;;;;;15.20;99.90;;;;;;4879805;29;20061;-71
2022/10/21 12:25:33;;;;;;;13.77;7.97;;;15.30;99.90;;;;;;4879470;29;19923;-71
2022/10/21 12:28:07;;;;;;;15.30;8.75;;;15.60;99.90;;;;;;4877839;29;20056;-71
2022/10/21 12:31:01;;;;;;;15.05;9.10;;;15.20;99.90;;;;;;4878932;29;20132;-71
2022/10/21 12:33:47;;;;;;;13.57;8.50;;;15.20;99.90;;;;;;4879888;29;20132;-71
2022/10/21 12:36:36;;;;;;;12.68;8.60;;;15.40;99.90;;;;;;4878625;29;20486;-71
2022/10/21 12:39:01;;;;;;;15.70;8.55;;;15.30;99.90;;;;;;4879389;29;20160;-70
2022/10/21 12:41:33;;;;;;;13.30;7.70;;;15.40;99.90;;;;;;4878892;29;20435;-70
2022/10/21 12:44:02;;;;;;;13.68;8.40;;;15.20;99.90;;;;;;4879027;29;20530;-70
2022/10/21 12:46:45;;;;;;;13.93;8.60;;;15.30;99.90;;;;;;4877400;29;20045;-70
2022/10/21 12:49:31;;;;;;;14.88;8.98;;;15.30;99.90;;;;;;4877987;29;20049;-70